Burlington, Canada
Current Conditions -  °F | °C
As of 5:00 AM on Friday 31 Oct 2014 (Local Time) from CYHM Reporting Station
Rain Showers Rain Showers  
Wind Chill: 41°   Ceiling: 5600
Heat Index: 41°   Visibility: 15mi
Dew Point: 36°   Wind: 3mph
Humidity: 81%   Direction: 120°ESE
Pressure: 29.95"   Gusts: NA
Location:  43.33°N, 79.8°W
Report Text: CYHM 310900Z 12003KT 15SM -SHRA FEW035 OVC056 05/02 A2995 RMK SC2SC6 SLP147
Loading
Personal Weather Stations






























Interactive Weather Map
Tropical Storm Tracking
New forecast layout! Learn more

10-Day Weather Forecast

Advertisements
Track Severe Weather on mobile